sensor_id;sensor_type;location;lat;lon;timestamp;P1;durP1;ratioP1;P2;durP2;ratioP2
6007;SDS011;3032;49.484;11.112;2023-02-26T00:01:34;2.78;;;1.25;;
6007;SDS011;3032;49.484;11.112;2023-02-26T00:04:02;4.13;;;1.27;;
6007;SDS011;3032;49.484;11.112;2023-02-26T00:06:30;1.10;;;1.00;;
6007;SDS011;3032;49.484;11.112;2023-02-26T00:08:57;1.30;;;1.13;;
6007;SDS011;3032;49.484;11.112;2023-02-26T00:11:23;1.13;;;1.05;;
6007;SDS011;3032;49.484;11.112;2023-02-26T00:13:49;2.23;;;1.43;;
6007;SDS011;3032;49.484;11.112;2023-02-26T00:18:47;2.47;;;1.73;;
6007;SDS011;3032;49.484;11.112;2023-02-26T00:21:22;2.10;;;0.97;;
6007;SDS011;3032;49.484;11.112;2023-02-26T00:23:49;3.17;;;1.27;;
6007;SDS011;3032;49.484;11.112;2023-02-26T00:26:15;3.60;;;1.42;;
6007;SDS011;3032;49.484;11.112;2023-02-26T00:28:41;3.80;;;1.43;;
6007;SDS011;3032;49.484;11.112;2023-02-26T00:31:07;1.30;;;1.20;;
6007;SDS011;3032;49.484;11.112;2023-02-26T00:33:33;1.85;;;1.30;;
6007;SDS011;3032;49.484;11.112;2023-02-26T00:36:02;2.05;;;1.40;;
6007;SDS011;3032;49.484;11.112;2023-02-26T00:41:39;2.38;;;1.17;;
6007;SDS011;3032;49.484;11.112;2023-02-26T00:44:05;4.77;;;1.50;;
6007;SDS011;3032;49.484;11.112;2023-02-26T00:46:34;4.17;;;1.50;;
6007;SDS011;3032;49.484;11.112;2023-02-26T00:51:44;2.95;;;1.50;;
6007;SDS011;3032;49.484;11.112;2023-02-26T00:54:19;2.95;;;1.50;;
6007;SDS011;3032;49.484;11.112;2023-02-26T00:56:47;2.95;;;1.45;;
6007;SDS011;3032;49.484;11.112;2023-02-26T00:59:14;3.08;;;1.60;;
6007;SDS011;3032;49.484;11.112;2023-02-26T01:01:40;2.13;;;1.50;;
6007;SDS011;3032;49.484;11.112;2023-02-26T01:04:06;2.10;;;1.90;;
6007;SDS011;3032;49.484;11.112;2023-02-26T01:06:33;4.00;;;2.17;;
6007;SDS011;3032;49.484;11.112;2023-02-26T01:09:04;5.18;;;1.73;;
6007;SDS011;3032;49.484;11.112;2023-02-26T01:11:39;2.90;;;1.88;;
6007;SDS011;3032;49.484;11.112;2023-02-26T01:14:05;2.50;;;1.60;;
6007;SDS011;3032;49.484;11.112;2023-02-26T01:16:33;1.50;;;1.40;;
6007;SDS011;3032;49.484;11.112;2023-02-26T01:19:06;2.55;;;1.90;;
6007;SDS011;3032;49.484;11.112;2023-02-26T01:21:40;3.00;;;2.35;;
6007;SDS011;3032;49.484;11.112;2023-02-26T01:24:10;2.90;;;2.50;;
6007;SDS011;3032;49.484;11.112;2023-02-26T01:26:39;3.60;;;2.05;;
6007;SDS011;3032;49.484;11.112;2023-02-26T01:29:05;1.67;;;1.57;;
6007;SDS011;3032;49.484;11.112;2023-02-26T01:31:33;1.63;;;1.53;;
6007;SDS011;3032;49.484;11.112;2023-02-26T01:34:18;3.70;;;2.33;;
6007;SDS011;3032;49.484;11.112;2023-02-26T01:36:53;2.22;;;1.63;;
6007;SDS011;3032;49.484;11.112;2023-02-26T01:39:25;3.17;;;1.98;;
6007;SDS011;3032;49.484;11.112;2023-02-26T01:42:17;2.78;;;1.10;;
6007;SDS011;3032;49.484;11.112;2023-02-26T01:44:58;1.30;;;1.20;;
6007;SDS011;3032;49.484;11.112;2023-02-26T01:47:43;1.00;;;1.00;;
6007;SDS011;3032;49.484;11.112;2023-02-26T01:50:34;2.35;;;1.35;;
6007;SDS011;3032;49.484;11.112;2023-02-26T01:55:46;4.15;;;1.27;;
6007;SDS011;3032;49.484;11.112;2023-02-26T01:58:15;2.55;;;1.38;;
6007;SDS011;3032;49.484;11.112;2023-02-26T02:00:42;2.78;;;1.30;;
6007;SDS011;3032;49.484;11.112;2023-02-26T02:03:08;1.07;;;1.07;;
6007;SDS011;3032;49.484;11.112;2023-02-26T02:05:42;1.13;;;1.02;;
6007;SDS011;3032;49.484;11.112;2023-02-26T02:08:11;1.20;;;1.20;;
6007;SDS011;3032;49.484;11.112;2023-02-26T02:10:39;1.80;;;1.60;;
6007;SDS011;3032;49.484;11.112;2023-02-26T02:15:45;2.00;;;1.52;;
6007;SDS011;3032;49.484;11.112;2023-02-26T02:18:21;3.72;;;2.00;;
6007;SDS011;3032;49.484;11.112;2023-02-26T02:26:52;2.53;;;1.60;;
6007;SDS011;3032;49.484;11.112;2023-02-26T02:29:52;1.90;;;1.70;;
6007;SDS011;3032;49.484;11.112;2023-02-26T02:32:45;5.28;;;2.17;;
6007;SDS011;3032;49.484;11.112;2023-02-26T02:35:17;2.60;;;1.63;;
6007;SDS011;3032;49.484;11.112;2023-02-26T02:37:54;2.90;;;1.55;;
6007;SDS011;3032;49.484;11.112;2023-02-26T02:40:40;2.42;;;1.70;;
6007;SDS011;3032;49.484;11.112;2023-02-26T02:43:18;1.75;;;1.58;;
6007;SDS011;3032;49.484;11.112;2023-02-26T02:48:32;2.33;;;1.50;;
6007;SDS011;3032;49.484;11.112;2023-02-26T02:51:06;3.55;;;1.67;;
6007;SDS011;3032;49.484;11.112;2023-02-26T02:53:36;4.28;;;1.30;;
6007;SDS011;3032;49.484;11.112;2023-02-26T02:56:08;3.35;;;1.60;;
6007;SDS011;3032;49.484;11.112;2023-02-26T02:58:42;3.80;;;1.63;;
6007;SDS011;3032;49.484;11.112;2023-02-26T03:01:14;2.40;;;1.40;;
6007;SDS011;3032;49.484;11.112;2023-02-26T03:04:05;3.40;;;1.63;;
6007;SDS011;3032;49.484;11.112;2023-02-26T03:06:34;1.67;;;1.30;;
6007;SDS011;3032;49.484;11.112;2023-02-26T03:09:00;3.83;;;1.37;;
6007;SDS011;3032;49.484;11.112;2023-02-26T03:11:28;4.05;;;1.30;;
6007;SDS011;3032;49.484;11.112;2023-02-26T03:13:54;1.45;;;1.33;;
6007;SDS011;3032;49.484;11.112;2023-02-26T03:21:48;2.00;;;1.30;;
6007;SDS011;3032;49.484;11.112;2023-02-26T03:24:24;1.15;;;0.90;;
6007;SDS011;3032;49.484;11.112;2023-02-26T03:27:12;3.15;;;1.40;;
6007;SDS011;3032;49.484;11.112;2023-02-26T03:29:46;2.90;;;1.45;;
6007;SDS011;3032;49.484;11.112;2023-02-26T03:32:35;1.02;;;1.02;;
6007;SDS011;3032;49.484;11.112;2023-02-26T03:41:13;1.25;;;1.10;;
6007;SDS011;3032;49.484;11.112;2023-02-26T03:44:05;1.45;;;1.00;;
6007;SDS011;3032;49.484;11.112;2023-02-26T03:46:44;2.15;;;1.25;;
6007;SDS011;3032;49.484;11.112;2023-02-26T03:49:20;1.70;;;1.58;;
6007;SDS011;3032;49.484;11.112;2023-02-26T03:51:51;1.85;;;1.55;;
6007;SDS011;3032;49.484;11.112;2023-02-26T03:54:21;2.45;;;1.77;;
6007;SDS011;3032;49.484;11.112;2023-02-26T03:56:55;3.30;;;1.50;;
6007;SDS011;3032;49.484;11.112;2023-02-26T03:59:21;5.00;;;1.70;;
6007;SDS011;3032;49.484;11.112;2023-02-26T04:04:17;2.17;;;1.30;;
6007;SDS011;3032;49.484;11.112;2023-02-26T04:06:47;1.80;;;1.30;;
6007;SDS011;3032;49.484;11.112;2023-02-26T04:09:13;5.70;;;1.70;;
6007;SDS011;3032;49.484;11.112;2023-02-26T04:11:40;1.55;;;1.25;;
6007;SDS011;3032;49.484;11.112;2023-02-26T04:14:07;3.30;;;1.20;;
6007;SDS011;3032;49.484;11.112;2023-02-26T04:16:33;1.57;;;1.00;;
6007;SDS011;3032;49.484;11.112;2023-02-26T04:18:58;1.63;;;1.20;;
6007;SDS011;3032;49.484;11.112;2023-02-26T04:21:24;2.43;;;1.10;;
6007;SDS011;3032;49.484;11.112;2023-02-26T04:23:49;3.30;;;1.00;;
6007;SDS011;3032;49.484;11.112;2023-02-26T04:26:15;1.27;;;1.17;;
6007;SDS011;3032;49.484;11.112;2023-02-26T04:28:40;2.60;;;1.20;;
6007;SDS011;3032;49.484;11.112;2023-02-26T04:31:06;1.10;;;1.00;;
6007;SDS011;3032;49.484;11.112;2023-02-26T04:33:32;1.40;;;1.30;;
6007;SDS011;3032;49.484;11.112;2023-02-26T04:35:58;3.70;;;1.43;;
6007;SDS011;3032;49.484;11.112;2023-02-26T04:38:24;4.47;;;1.42;;
6007;SDS011;3032;49.484;11.112;2023-02-26T04:40:51;2.35;;;1.33;;
6007;SDS011;3032;49.484;11.112;2023-02-26T04:43:16;1.23;;;1.13;;
6007;SDS011;3032;49.484;11.112;2023-02-26T04:45:46;2.80;;;1.27;;
6007;SDS011;3032;49.484;11.112;2023-02-26T04:48:12;2.13;;;1.13;;
6007;SDS011;3032;49.484;11.112;2023-02-26T04:50:39;1.15;;;1.00;;
6007;SDS011;3032;49.484;11.112;2023-02-26T04:53:04;2.40;;;1.30;;
6007;SDS011;3032;49.484;11.112;2023-02-26T04:55:30;2.40;;;0.90;;
6007;SDS011;3032;49.484;11.112;2023-02-26T04:57:56;1.17;;;1.07;;
6007;SDS011;3032;49.484;11.112;2023-02-26T05:00:21;1.10;;;1.00;;
6007;SDS011;3032;49.484;11.112;2023-02-26T05:02:47;2.93;;;1.03;;
6007;SDS011;3032;49.484;11.112;2023-02-26T05:05:12;2.17;;;1.00;;
6007;SDS011;3032;49.484;11.112;2023-02-26T05:07:38;2.13;;;1.60;;
6007;SDS011;3032;49.484;11.112;2023-02-26T05:10:06;1.93;;;1.20;;
6007;SDS011;3032;49.484;11.112;2023-02-26T05:12:33;1.00;;;0.80;;
6007;SDS011;3032;49.484;11.112;2023-02-26T05:14:59;1.50;;;1.10;;
6007;SDS011;3032;49.484;11.112;2023-02-26T05:17:24;5.43;;;1.60;;
6007;SDS011;3032;49.484;11.112;2023-02-26T05:19:50;1.27;;;1.03;;
6007;SDS011;3032;49.484;11.112;2023-02-26T05:22:15;3.20;;;1.40;;
6007;SDS011;3032;49.484;11.112;2023-02-26T05:24:41;1.00;;;1.00;;
6007;SDS011;3032;49.484;11.112;2023-02-26T05:27:07;3.33;;;1.30;;
6007;SDS011;3032;49.484;11.112;2023-02-26T05:29:33;2.35;;;1.15;;
6007;SDS011;3032;49.484;11.112;2023-02-26T05:31:59;4.30;;;1.00;;
6007;SDS011;3032;49.484;11.112;2023-02-26T05:34:25;1.50;;;1.17;;
6007;SDS011;3032;49.484;11.112;2023-02-26T05:36:50;3.80;;;1.20;;
6007;SDS011;3032;49.484;11.112;2023-02-26T05:39:16;2.30;;;1.10;;
6007;SDS011;3032;49.484;11.112;2023-02-26T05:41:41;4.00;;;1.03;;
6007;SDS011;3032;49.484;11.112;2023-02-26T05:44:07;4.47;;;1.00;;
6007;SDS011;3032;49.484;11.112;2023-02-26T05:46:33;2.20;;;1.20;;
6007;SDS011;3032;49.484;11.112;2023-02-26T05:48:58;1.73;;;1.30;;
6007;SDS011;3032;49.484;11.112;2023-02-26T05:51:24;1.80;;;1.30;;
6007;SDS011;3032;49.484;11.112;2023-02-26T05:53:52;1.40;;;1.30;;
6007;SDS011;3032;49.484;11.112;2023-02-26T05:56:18;1.87;;;1.60;;
6007;SDS011;3032;49.484;11.112;2023-02-26T05:58:43;2.03;;;1.20;;
6007;SDS011;3032;49.484;11.112;2023-02-26T06:01:09;2.00;;;1.20;;
6007;SDS011;3032;49.484;11.112;2023-02-26T06:03:34;1.50;;;1.40;;
6007;SDS011;3032;49.484;11.112;2023-02-26T06:06:00;0.90;;;0.90;;
6007;SDS011;3032;49.484;11.112;2023-02-26T06:08:26;4.57;;;1.50;;
6007;SDS011;3032;49.484;11.112;2023-02-26T06:10:51;1.33;;;1.17;;
6007;SDS011;3032;49.484;11.112;2023-02-26T06:13:17;4.40;;;1.50;;
6007;SDS011;3032;49.484;11.112;2023-02-26T06:15:42;2.00;;;1.47;;
6007;SDS011;3032;49.484;11.112;2023-02-26T06:18:08;1.77;;;1.60;;
6007;SDS011;3032;49.484;11.112;2023-02-26T06:20:34;1.83;;;1.30;;
6007;SDS011;3032;49.484;11.112;2023-02-26T06:23:00;4.75;;;1.38;;
6007;SDS011;3032;49.484;11.112;2023-02-26T06:25:25;6.80;;;1.63;;
6007;SDS011;3032;49.484;11.112;2023-02-26T06:27:51;2.97;;;1.70;;
6007;SDS011;3032;49.484;11.112;2023-02-26T06:30:17;2.30;;;1.90;;
6007;SDS011;3032;49.484;11.112;2023-02-26T06:32:43;4.63;;;1.30;;
6007;SDS011;3032;49.484;11.112;2023-02-26T06:35:09;2.27;;;1.60;;
6007;SDS011;3032;49.484;11.112;2023-02-26T06:37:35;7.93;;;1.70;;
6007;SDS011;3032;49.484;11.112;2023-02-26T06:40:01;1.50;;;1.33;;
6007;SDS011;3032;49.484;11.112;2023-02-26T06:42:28;2.80;;;1.30;;
6007;SDS011;3032;49.484;11.112;2023-02-26T06:44:53;2.60;;;1.30;;
6007;SDS011;3032;49.484;11.112;2023-02-26T06:47:20;5.47;;;1.40;;
6007;SDS011;3032;49.484;11.112;2023-02-26T06:49:46;1.20;;;1.10;;
6007;SDS011;3032;49.484;11.112;2023-02-26T06:52:13;1.25;;;1.15;;
6007;SDS011;3032;49.484;11.112;2023-02-26T06:54:39;2.25;;;1.20;;
6007;SDS011;3032;49.484;11.112;2023-02-26T06:57:04;2.17;;;1.13;;
6007;SDS011;3032;49.484;11.112;2023-02-26T06:59:30;2.30;;;1.40;;
6007;SDS011;3032;49.484;11.112;2023-02-26T07:01:55;5.70;;;1.50;;
6007;SDS011;3032;49.484;11.112;2023-02-26T07:04:21;5.60;;;1.43;;
6007;SDS011;3032;49.484;11.112;2023-02-26T07:06:47;6.73;;;1.67;;
6007;SDS011;3032;49.484;11.112;2023-02-26T07:09:12;2.83;;;1.47;;
6007;SDS011;3032;49.484;11.112;2023-02-26T07:11:38;1.67;;;1.50;;
6007;SDS011;3032;49.484;11.112;2023-02-26T07:14:03;2.73;;;1.50;;
6007;SDS011;3032;49.484;11.112;2023-02-26T07:16:29;1.90;;;1.80;;
6007;SDS011;3032;49.484;11.112;2023-02-26T07:18:55;2.60;;;1.40;;
6007;SDS011;3032;49.484;11.112;2023-02-26T07:21:20;5.07;;;1.53;;
6007;SDS011;3032;49.484;11.112;2023-02-26T07:23:46;2.63;;;1.60;;
6007;SDS011;3032;49.484;11.112;2023-02-26T07:26:11;2.17;;;1.97;;
6007;SDS011;3032;49.484;11.112;2023-02-26T07:28:37;3.73;;;2.70;;
6007;SDS011;3032;49.484;11.112;2023-02-26T07:31:02;6.23;;;2.67;;
6007;SDS011;3032;49.484;11.112;2023-02-26T07:33:28;2.30;;;2.20;;
6007;SDS011;3032;49.484;11.112;2023-02-26T07:35:55;2.28;;;2.05;;
6007;SDS011;3032;49.484;11.112;2023-02-26T07:38:21;3.80;;;1.90;;
6007;SDS011;3032;49.484;11.112;2023-02-26T07:40:46;2.53;;;1.87;;
6007;SDS011;3032;49.484;11.112;2023-02-26T07:43:12;1.57;;;1.40;;
6007;SDS011;3032;49.484;11.112;2023-02-26T07:45:38;3.00;;;1.80;;
6007;SDS011;3032;49.484;11.112;2023-02-26T07:48:03;2.60;;;1.50;;
6007;SDS011;3032;49.484;11.112;2023-02-26T07:50:29;1.70;;;1.60;;
6007;SDS011;3032;49.484;11.112;2023-02-26T07:52:54;2.50;;;1.60;;
6007;SDS011;3032;49.484;11.112;2023-02-26T07:55:20;2.33;;;1.80;;
6007;SDS011;3032;49.484;11.112;2023-02-26T07:57:46;2.03;;;1.20;;
6007;SDS011;3032;49.484;11.112;2023-02-26T08:00:12;2.20;;;1.67;;
6007;SDS011;3032;49.484;11.112;2023-02-26T08:02:38;6.60;;;1.50;;
6007;SDS011;3032;49.484;11.112;2023-02-26T08:05:04;3.07;;;1.27;;
6007;SDS011;3032;49.484;11.112;2023-02-26T08:07:30;2.38;;;1.70;;
6007;SDS011;3032;49.484;11.112;2023-02-26T08:09:56;1.70;;;1.57;;
6007;SDS011;3032;49.484;11.112;2023-02-26T08:12:21;1.70;;;1.60;;
6007;SDS011;3032;49.484;11.112;2023-02-26T08:14:47;2.50;;;1.70;;
6007;SDS011;3032;49.484;11.112;2023-02-26T08:17:13;2.20;;;1.70;;
6007;SDS011;3032;49.484;11.112;2023-02-26T08:19:38;1.63;;;1.53;;
6007;SDS011;3032;49.484;11.112;2023-02-26T08:22:04;2.00;;;1.37;;
6007;SDS011;3032;49.484;11.112;2023-02-26T08:24:30;2.10;;;1.90;;
6007;SDS011;3032;49.484;11.112;2023-02-26T08:26:55;1.67;;;1.57;;
6007;SDS011;3032;49.484;11.112;2023-02-26T08:29:21;1.90;;;1.33;;
6007;SDS011;3032;49.484;11.112;2023-02-26T08:31:47;1.33;;;1.30;;
6007;SDS011;3032;49.484;11.112;2023-02-26T08:34:12;1.30;;;1.30;;
6007;SDS011;3032;49.484;11.112;2023-02-26T08:36:38;3.40;;;1.87;;
6007;SDS011;3032;49.484;11.112;2023-02-26T08:39:04;1.23;;;1.23;;
6007;SDS011;3032;49.484;11.112;2023-02-26T08:41:30;1.52;;;1.25;;
6007;SDS011;3032;49.484;11.112;2023-02-26T08:43:58;1.45;;;1.42;;
6007;SDS011;3032;49.484;11.112;2023-02-26T08:46:24;1.40;;;1.30;;
6007;SDS011;3032;49.484;11.112;2023-02-26T08:48:50;1.70;;;1.60;;
6007;SDS011;3032;49.484;11.112;2023-02-26T08:51:15;1.80;;;1.70;;
6007;SDS011;3032;49.484;11.112;2023-02-26T08:53:41;1.80;;;1.70;;
6007;SDS011;3032;49.484;11.112;2023-02-26T08:56:09;1.60;;;1.50;;
6007;SDS011;3032;49.484;11.112;2023-02-26T08:58:34;1.80;;;1.70;;
6007;SDS011;3032;49.484;11.112;2023-02-26T09:01:00;1.23;;;1.13;;
6007;SDS011;3032;49.484;11.112;2023-02-26T09:03:25;1.57;;;1.30;;
6007;SDS011;3032;49.484;11.112;2023-02-26T09:05:51;1.33;;;1.23;;
6007;SDS011;3032;49.484;11.112;2023-02-26T09:08:17;1.70;;;1.60;;
6007;SDS011;3032;49.484;11.112;2023-02-26T09:10:44;2.78;;;2.58;;
6007;SDS011;3032;49.484;11.112;2023-02-26T09:13:10;1.93;;;1.83;;
6007;SDS011;3032;49.484;11.112;2023-02-26T09:15:35;2.10;;;1.90;;
6007;SDS011;3032;49.484;11.112;2023-02-26T09:18:01;2.13;;;1.93;;
6007;SDS011;3032;49.484;11.112;2023-02-26T09:20:26;1.30;;;1.30;;
6007;SDS011;3032;49.484;11.112;2023-02-26T09:22:52;1.83;;;1.40;;
6007;SDS011;3032;49.484;11.112;2023-02-26T09:25:18;1.40;;;1.30;;
6007;SDS011;3032;49.484;11.112;2023-02-26T09:27:44;1.57;;;1.20;;
6007;SDS011;3032;49.484;11.112;2023-02-26T09:30:09;1.20;;;1.10;;
6007;SDS011;3032;49.484;11.112;2023-02-26T09:32:35;1.10;;;1.00;;
6007;SDS011;3032;49.484;11.112;2023-02-26T09:35:02;1.10;;;1.10;;
6007;SDS011;3032;49.484;11.112;2023-02-26T09:37:28;0.80;;;0.80;;
6007;SDS011;3032;49.484;11.112;2023-02-26T09:39:54;0.70;;;0.70;;
6007;SDS011;3032;49.484;11.112;2023-02-26T09:42:29;0.85;;;0.85;;
6007;SDS011;3032;49.484;11.112;2023-02-26T09:45:18;0.70;;;0.70;;
6007;SDS011;3032;49.484;11.112;2023-02-26T09:47:51;0.80;;;0.80;;
6007;SDS011;3032;49.484;11.112;2023-02-26T09:50:22;0.77;;;0.77;;
6007;SDS011;3032;49.484;11.112;2023-02-26T09:55:33;2.40;;;1.17;;
6007;SDS011;3032;49.484;11.112;2023-02-26T09:58:05;0.80;;;0.80;;
6007;SDS011;3032;49.484;11.112;2023-02-26T10:06:37;1.30;;;1.20;;
6007;SDS011;3032;49.484;11.112;2023-02-26T10:12:24;0.90;;;0.75;;
6007;SDS011;3032;49.484;11.112;2023-02-26T10:14:57;1.45;;;1.35;;
6007;SDS011;3032;49.484;11.112;2023-02-26T10:20:24;0.93;;;0.93;;
6007;SDS011;3032;49.484;11.112;2023-02-26T10:25:48;0.80;;;0.80;;
6007;SDS011;3032;49.484;11.112;2023-02-26T10:31:21;1.00;;;1.00;;
6007;SDS011;3032;49.484;11.112;2023-02-26T10:39:50;0.80;;;0.80;;
6007;SDS011;3032;49.484;11.112;2023-02-26T10:42:32;0.90;;;0.90;;
6007;SDS011;3032;49.484;11.112;2023-02-26T10:45:16;1.30;;;0.68;;
6007;SDS011;3032;49.484;11.112;2023-02-26T10:47:52;0.60;;;0.60;;
6007;SDS011;3032;49.484;11.112;2023-02-26T10:50:38;1.67;;;0.70;;
6007;SDS011;3032;49.484;11.112;2023-02-26T10:53:12;0.70;;;0.70;;
6007;SDS011;3032;49.484;11.112;2023-02-26T10:55:41;0.73;;;0.73;;
6007;SDS011;3032;49.484;11.112;2023-02-26T10:58:12;0.82;;;0.82;;
6007;SDS011;3032;49.484;11.112;2023-02-26T11:00:46;0.82;;;0.82;;
6007;SDS011;3032;49.484;11.112;2023-02-26T11:03:18;1.10;;;1.10;;
6007;SDS011;3032;49.484;11.112;2023-02-26T11:05:59;0.85;;;0.85;;
6007;SDS011;3032;49.484;11.112;2023-02-26T11:08:49;1.67;;;0.70;;
6007;SDS011;3032;49.484;11.112;2023-02-26T11:14:15;2.00;;;1.33;;
6007;SDS011;3032;49.484;11.112;2023-02-26T11:16:54;2.80;;;0.80;;
6007;SDS011;3032;49.484;11.112;2023-02-26T11:19:32;0.70;;;0.70;;
6007;SDS011;3032;49.484;11.112;2023-02-26T11:22:01;0.77;;;0.77;;
6007;SDS011;3032;49.484;11.112;2023-02-26T11:24:33;0.98;;;0.88;;
6007;SDS011;3032;49.484;11.112;2023-02-26T11:27:01;7.05;;;1.10;;
6007;SDS011;3032;49.484;11.112;2023-02-26T11:29:34;0.70;;;0.70;;
6007;SDS011;3032;49.484;11.112;2023-02-26T11:32:05;1.00;;;1.00;;
6007;SDS011;3032;49.484;11.112;2023-02-26T11:34:31;1.00;;;1.00;;
6007;SDS011;3032;49.484;11.112;2023-02-26T11:36:59;1.00;;;0.90;;
6007;SDS011;3032;49.484;11.112;2023-02-26T11:39:26;0.70;;;0.70;;
6007;SDS011;3032;49.484;11.112;2023-02-26T11:41:57;0.90;;;0.90;;
6007;SDS011;3032;49.484;11.112;2023-02-26T11:47:00;0.80;;;0.80;;
6007;SDS011;3032;49.484;11.112;2023-02-26T11:49:29;0.70;;;0.70;;
6007;SDS011;3032;49.484;11.112;2023-02-26T11:54:40;1.30;;;1.20;;
6007;SDS011;3032;49.484;11.112;2023-02-26T11:57:17;1.25;;;1.17;;
6007;SDS011;3032;49.484;11.112;2023-02-26T11:59:49;0.80;;;0.80;;
6007;SDS011;3032;49.484;11.112;2023-02-26T12:02:19;0.80;;;0.80;;
6007;SDS011;3032;49.484;11.112;2023-02-26T12:04:48;1.00;;;0.70;;
6007;SDS011;3032;49.484;11.112;2023-02-26T12:07:16;0.88;;;0.88;;
6007;SDS011;3032;49.484;11.112;2023-02-26T12:09:44;0.82;;;0.80;;
6007;SDS011;3032;49.484;11.112;2023-02-26T12:15:34;0.85;;;0.85;;
6007;SDS011;3032;49.484;11.112;2023-02-26T12:18:37;0.70;;;0.70;;
6007;SDS011;3032;49.484;11.112;2023-02-26T12:23:52;1.10;;;0.70;;
6007;SDS011;3032;49.484;11.112;2023-02-26T12:26:34;0.80;;;0.80;;
6007;SDS011;3032;49.484;11.112;2023-02-26T12:29:30;0.75;;;0.75;;
6007;SDS011;3032;49.484;11.112;2023-02-26T12:41:04;0.70;;;0.70;;
6007;SDS011;3032;49.484;11.112;2023-02-26T12:43:50;1.08;;;0.65;;
6007;SDS011;3032;49.484;11.112;2023-02-26T12:46:21;1.00;;;0.90;;
6007;SDS011;3032;49.484;11.112;2023-02-26T12:57:49;0.70;;;0.70;;
6007;SDS011;3032;49.484;11.112;2023-02-26T13:00:43;0.70;;;0.60;;
6007;SDS011;3032;49.484;11.112;2023-02-26T13:09:22;0.75;;;0.75;;
6007;SDS011;3032;49.484;11.112;2023-02-26T13:12:18;1.50;;;0.75;;
6007;SDS011;3032;49.484;11.112;2023-02-26T13:14:49;0.70;;;0.70;;
6007;SDS011;3032;49.484;11.112;2023-02-26T13:20:18;1.60;;;0.80;;
6007;SDS011;3032;49.484;11.112;2023-02-26T13:22:50;1.30;;;0.80;;
6007;SDS011;3032;49.484;11.112;2023-02-26T13:25:29;0.82;;;0.82;;
6007;SDS011;3032;49.484;11.112;2023-02-26T13:31:49;1.00;;;0.70;;
6007;SDS011;3032;49.484;11.112;2023-02-26T13:33:58;1.55;;;0.75;;
6007;SDS011;3032;49.484;11.112;2023-02-26T13:36:28;1.60;;;0.80;;
6007;SDS011;3032;49.484;11.112;2023-02-26T13:44:27;1.27;;;0.80;;
6007;SDS011;3032;49.484;11.112;2023-02-26T13:52:48;0.63;;;0.63;;
6007;SDS011;3032;49.484;11.112;2023-02-26T13:55:35;0.63;;;0.63;;
6007;SDS011;3032;49.484;11.112;2023-02-26T14:03:34;0.60;;;0.60;;
6007;SDS011;3032;49.484;11.112;2023-02-26T14:06:22;0.73;;;0.70;;
6007;SDS011;3032;49.484;11.112;2023-02-26T14:08:49;0.82;;;0.82;;
6007;SDS011;3032;49.484;11.112;2023-02-26T14:11:24;0.65;;;0.65;;
6007;SDS011;3032;49.484;11.112;2023-02-26T14:14:05;3.58;;;0.70;;
6007;SDS011;3032;49.484;11.112;2023-02-26T14:16:52;1.40;;;0.60;;
6007;SDS011;3032;49.484;11.112;2023-02-26T14:19:31;1.13;;;0.63;;
6007;SDS011;3032;49.484;11.112;2023-02-26T14:27:39;0.70;;;0.70;;
6007;SDS011;3032;49.484;11.112;2023-02-26T14:35:30;0.90;;;0.90;;
6007;SDS011;3032;49.484;11.112;2023-02-26T14:38:03;0.70;;;0.70;;
6007;SDS011;3032;49.484;11.112;2023-02-26T14:40:37;1.30;;;0.80;;
6007;SDS011;3032;49.484;11.112;2023-02-26T14:43:06;1.08;;;0.93;;
6007;SDS011;3032;49.484;11.112;2023-02-26T14:45:42;0.95;;;0.80;;
6007;SDS011;3032;49.484;11.112;2023-02-26T14:48:14;0.75;;;0.75;;
6007;SDS011;3032;49.484;11.112;2023-02-26T14:58:55;0.80;;;0.60;;
6007;SDS011;3032;49.484;11.112;2023-02-26T15:08:59;2.88;;;0.80;;
6007;SDS011;3032;49.484;11.112;2023-02-26T15:11:51;0.77;;;0.77;;
6007;SDS011;3032;49.484;11.112;2023-02-26T15:20:40;1.00;;;0.70;;
6007;SDS011;3032;49.484;11.112;2023-02-26T15:26:18;0.82;;;0.70;;
6007;SDS011;3032;49.484;11.112;2023-02-26T15:28:47;1.15;;;0.70;;
6007;SDS011;3032;49.484;11.112;2023-02-26T15:31:14;0.70;;;0.70;;
6007;SDS011;3032;49.484;11.112;2023-02-26T15:33:42;2.47;;;1.00;;
6007;SDS011;3032;49.484;11.112;2023-02-26T15:36:13;3.50;;;0.95;;
6007;SDS011;3032;49.484;11.112;2023-02-26T15:38:52;2.00;;;0.90;;
6007;SDS011;3032;49.484;11.112;2023-02-26T15:41:19;0.90;;;0.60;;
6007;SDS011;3032;49.484;11.112;2023-02-26T15:43:50;1.40;;;0.90;;
6007;SDS011;3032;49.484;11.112;2023-02-26T15:46:19;1.08;;;0.90;;
6007;SDS011;3032;49.484;11.112;2023-02-26T15:48:50;1.33;;;1.02;;
6007;SDS011;3032;49.484;11.112;2023-02-26T15:51:18;0.90;;;0.90;;
6007;SDS011;3032;49.484;11.112;2023-02-26T15:53:46;1.02;;;1.00;;
6007;SDS011;3032;49.484;11.112;2023-02-26T15:56:18;2.28;;;1.38;;
6007;SDS011;3032;49.484;11.112;2023-02-26T15:58:50;1.30;;;1.20;;
6007;SDS011;3032;49.484;11.112;2023-02-26T16:01:22;1.15;;;1.05;;
6007;SDS011;3032;49.484;11.112;2023-02-26T16:03:50;1.30;;;0.90;;
6007;SDS011;3032;49.484;11.112;2023-02-26T16:06:28;2.72;;;0.80;;
6007;SDS011;3032;49.484;11.112;2023-02-26T16:08:56;1.63;;;0.75;;
6007;SDS011;3032;49.484;11.112;2023-02-26T16:11:24;0.90;;;0.90;;
6007;SDS011;3032;49.484;11.112;2023-02-26T16:13:57;0.85;;;0.85;;
6007;SDS011;3032;49.484;11.112;2023-02-26T16:16:25;1.00;;;0.90;;
6007;SDS011;3032;49.484;11.112;2023-02-26T16:18:53;1.00;;;1.00;;
6007;SDS011;3032;49.484;11.112;2023-02-26T16:21:26;0.82;;;0.82;;
6007;SDS011;3032;49.484;11.112;2023-02-26T16:23:55;0.82;;;0.82;;
6007;SDS011;3032;49.484;11.112;2023-02-26T16:26:27;0.88;;;0.88;;
6007;SDS011;3032;49.484;11.112;2023-02-26T16:29:46;1.88;;;1.02;;
6007;SDS011;3032;49.484;11.112;2023-02-26T16:31:56;1.20;;;1.20;;
6007;SDS011;3032;49.484;11.112;2023-02-26T16:39:53;3.05;;;1.30;;
6007;SDS011;3032;49.484;11.112;2023-02-26T16:42:31;1.42;;;0.90;;
6007;SDS011;3032;49.484;11.112;2023-02-26T16:47:39;1.88;;;1.00;;
6007;SDS011;3032;49.484;11.112;2023-02-26T16:50:10;1.10;;;1.10;;
6007;SDS011;3032;49.484;11.112;2023-02-26T16:52:43;1.00;;;1.00;;
6007;SDS011;3032;49.484;11.112;2023-02-26T16:55:12;1.27;;;0.90;;
6007;SDS011;3032;49.484;11.112;2023-02-26T16:57:42;0.90;;;0.90;;
6007;SDS011;3032;49.484;11.112;2023-02-26T17:00:31;1.05;;;1.05;;
6007;SDS011;3032;49.484;11.112;2023-02-26T17:02:56;1.30;;;1.05;;
6007;SDS011;3032;49.484;11.112;2023-02-26T17:05:28;1.10;;;1.00;;
6007;SDS011;3032;49.484;11.112;2023-02-26T17:08:05;1.50;;;1.40;;
6007;SDS011;3032;49.484;11.112;2023-02-26T17:10:39;2.17;;;1.98;;
6007;SDS011;3032;49.484;11.112;2023-02-26T17:15:41;4.70;;;2.90;;
6007;SDS011;3032;49.484;11.112;2023-02-26T17:18:10;3.15;;;2.00;;
6007;SDS011;3032;49.484;11.112;2023-02-26T17:20:36;15.80;;;2.30;;
6007;SDS011;3032;49.484;11.112;2023-02-26T17:23:04;1.23;;;1.13;;
6007;SDS011;3032;49.484;11.112;2023-02-26T17:25:37;1.40;;;1.20;;
6007;SDS011;3032;49.484;11.112;2023-02-26T17:28:06;0.70;;;0.70;;
6007;SDS011;3032;49.484;11.112;2023-02-26T17:30:34;1.23;;;1.10;;
6007;SDS011;3032;49.484;11.112;2023-02-26T17:33:00;0.70;;;0.70;;
6007;SDS011;3032;49.484;11.112;2023-02-26T17:35:28;1.50;;;0.75;;
6007;SDS011;3032;49.484;11.112;2023-02-26T17:37:55;1.00;;;1.00;;
6007;SDS011;3032;49.484;11.112;2023-02-26T17:42:51;0.88;;;0.88;;
6007;SDS011;3032;49.484;11.112;2023-02-26T17:45:17;1.30;;;1.00;;
6007;SDS011;3032;49.484;11.112;2023-02-26T17:47:44;1.80;;;1.38;;
6007;SDS011;3032;49.484;11.112;2023-02-26T17:50:19;1.85;;;1.15;;
6007;SDS011;3032;49.484;11.112;2023-02-26T17:52:47;0.95;;;0.95;;
6007;SDS011;3032;49.484;11.112;2023-02-26T17:55:12;0.80;;;0.80;;
6007;SDS011;3032;49.484;11.112;2023-02-26T17:57:38;1.20;;;1.10;;
6007;SDS011;3032;49.484;11.112;2023-02-26T18:00:03;1.20;;;1.10;;
6007;SDS011;3032;49.484;11.112;2023-02-26T18:02:29;1.52;;;1.17;;
6007;SDS011;3032;49.484;11.112;2023-02-26T18:04:55;1.40;;;1.30;;
6007;SDS011;3032;49.484;11.112;2023-02-26T18:07:20;1.27;;;1.17;;
6007;SDS011;3032;49.484;11.112;2023-02-26T18:09:47;1.70;;;1.10;;
6007;SDS011;3032;49.484;11.112;2023-02-26T18:12:17;1.90;;;1.30;;